sensor_id;sensor_type;location;lat;lon;timestamp;pressure;altitude;pressure_sealevel;temperature;humidity
76660;BME280;65579;45.534;6.212;2023-09-12T00:02:02;98076.14;;;23.53;42.90
76660;BME280;65579;45.534;6.212;2023-09-12T00:04:28;98074.41;;;24.56;39.98
76660;BME280;65579;45.534;6.212;2023-09-12T00:06:53;98070.76;;;25.10;39.14
76660;BME280;65579;45.534;6.212;2023-09-12T00:09:19;98072.70;;;25.18;38.89
76660;BME280;65579;45.534;6.212;2023-09-12T00:11:45;98076.28;;;25.29;38.40
76660;BME280;65579;45.534;6.212;2023-09-12T00:14:10;98076.09;;;25.77;37.98
76660;BME280;65579;45.534;6.212;2023-09-12T00:16:36;98072.87;;;25.68;37.82
76660;BME280;65579;45.534;6.212;2023-09-12T00:19:01;98073.28;;;25.50;37.63
76660;BME280;65579;45.534;6.212;2023-09-12T00:21:26;98075.74;;;25.89;37.17
76660;BME280;65579;45.534;6.212;2023-09-12T00:23:52;98076.65;;;23.11;42.66
76660;BME280;65579;45.534;6.212;2023-09-12T00:26:17;98076.15;;;23.90;41.49
76660;BME280;65579;45.534;6.212;2023-09-12T00:28:42;98081.04;;;24.66;40.16
76660;BME280;65579;45.534;6.212;2023-09-12T00:31:08;98084.42;;;24.96;38.98
76660;BME280;65579;45.534;6.212;2023-09-12T00:33:34;98083.44;;;25.07;38.93
76660;BME280;65579;45.534;6.212;2023-09-12T00:35:59;98085.81;;;24.90;39.55
76660;BME280;65579;45.534;6.212;2023-09-12T00:38:24;98087.60;;;24.64;39.34
76660;BME280;65579;45.534;6.212;2023-09-12T00:40:50;98084.88;;;24.75;39.31
76660;BME280;65579;45.534;6.212;2023-09-12T00:43:16;98080.57;;;24.91;38.14
76660;BME280;65579;45.534;6.212;2023-09-12T00:45:42;98077.92;;;24.93;38.03
76660;BME280;65579;45.534;6.212;2023-09-12T00:48:08;98077.63;;;24.83;38.73
76660;BME280;65579;45.534;6.212;2023-09-12T00:50:34;98076.44;;;24.63;38.88
76660;BME280;65579;45.534;6.212;2023-09-12T00:52:59;98074.18;;;25.00;38.12
76660;BME280;65579;45.534;6.212;2023-09-12T00:55:25;98073.62;;;24.94;37.65
76660;BME280;65579;45.534;6.212;2023-09-12T00:57:52;98071.76;;;24.83;38.68
76660;BME280;65579;45.534;6.212;2023-09-12T01:00:15;98072.80;;;24.84;39.65
76660;BME280;65579;45.534;6.212;2023-09-12T01:02:42;98071.89;;;24.33;40.09
76660;BME280;65579;45.534;6.212;2023-09-12T01:05:07;98071.92;;;24.49;40.12
76660;BME280;65579;45.534;6.212;2023-09-12T01:07:32;98075.02;;;24.63;38.89
76660;BME280;65579;45.534;6.212;2023-09-12T01:09:57;98074.95;;;24.87;39.43
76660;BME280;65579;45.534;6.212;2023-09-12T01:12:23;98073.16;;;25.20;38.74
76660;BME280;65579;45.534;6.212;2023-09-12T01:14:49;98073.11;;;24.96;39.07
76660;BME280;65579;45.534;6.212;2023-09-12T01:17:14;98074.79;;;24.53;39.40
76660;BME280;65579;45.534;6.212;2023-09-12T01:19:40;98077.84;;;23.08;42.86
76660;BME280;65579;45.534;6.212;2023-09-12T01:29:22;98059.15;;;24.80;39.00
76660;BME280;65579;45.534;6.212;2023-09-12T01:31:49;98052.33;;;24.80;38.65
76660;BME280;65579;45.534;6.212;2023-09-12T01:34:13;98051.31;;;24.95;38.91
76660;BME280;65579;45.534;6.212;2023-09-12T01:36:39;98045.03;;;25.13;39.02
76660;BME280;65579;45.534;6.212;2023-09-12T01:39:05;98041.86;;;24.91;38.62
76660;BME280;65579;45.534;6.212;2023-09-12T01:41:34;98042.06;;;24.85;38.39
76660;BME280;65579;45.534;6.212;2023-09-12T01:43:56;98040.92;;;24.78;38.61
76660;BME280;65579;45.534;6.212;2023-09-12T01:46:22;98040.29;;;24.84;38.79
76660;BME280;65579;45.534;6.212;2023-09-12T01:48:48;98043.22;;;23.22;42.56
76660;BME280;65579;45.534;6.212;2023-09-12T01:51:12;98048.54;;;22.82;43.83
76660;BME280;65579;45.534;6.212;2023-09-12T01:53:38;98042.73;;;23.92;41.29
76660;BME280;65579;45.534;6.212;2023-09-12T01:56:03;98039.81;;;23.94;41.20
76660;BME280;65579;45.534;6.212;2023-09-12T01:58:29;98033.63;;;24.09;40.72
76660;BME280;65579;45.534;6.212;2023-09-12T02:00:55;98026.85;;;24.32;40.50
76660;BME280;65579;45.534;6.212;2023-09-12T02:03:20;98026.26;;;24.70;40.09
76660;BME280;65579;45.534;6.212;2023-09-12T02:05:46;98023.27;;;24.47;39.64
76660;BME280;65579;45.534;6.212;2023-09-12T02:08:11;98017.95;;;24.17;39.66
76660;BME280;65579;45.534;6.212;2023-09-12T02:10:36;98014.73;;;24.26;39.80
76660;BME280;65579;45.534;6.212;2023-09-12T02:13:03;98014.58;;;24.37;38.74
76660;BME280;65579;45.534;6.212;2023-09-12T02:15:28;98016.64;;;24.34;38.84
76660;BME280;65579;45.534;6.212;2023-09-12T02:17:54;98022.15;;;23.69;41.15
76660;BME280;65579;45.534;6.212;2023-09-12T02:20:19;98026.93;;;23.30;40.55
76660;BME280;65579;45.534;6.212;2023-09-12T02:22:45;98039.42;;;18.92;49.92
76660;BME280;65579;45.534;6.212;2023-09-12T02:25:11;98040.98;;;18.79;51.69
76660;BME280;65579;45.534;6.212;2023-09-12T02:27:37;98039.82;;;19.11;51.19
76660;BME280;65579;45.534;6.212;2023-09-12T02:30:02;98031.04;;;20.36;49.07
76660;BME280;65579;45.534;6.212;2023-09-12T02:32:28;98032.11;;;22.18;45.01
76660;BME280;65579;45.534;6.212;2023-09-12T02:34:53;98028.28;;;22.71;43.42
76660;BME280;65579;45.534;6.212;2023-09-12T02:37:18;98026.94;;;21.78;45.93
76660;BME280;65579;45.534;6.212;2023-09-12T02:39:44;98018.07;;;23.22;41.96
76660;BME280;65579;45.534;6.212;2023-09-12T02:42:10;98018.46;;;22.14;44.31
76660;BME280;65579;45.534;6.212;2023-09-12T02:44:35;98010.04;;;23.63;42.15
76660;BME280;65579;45.534;6.212;2023-09-12T02:47:02;98006.48;;;23.85;40.96
76660;BME280;65579;45.534;6.212;2023-09-12T02:49:27;98006.93;;;23.39;41.69
76660;BME280;65579;45.534;6.212;2023-09-12T02:51:52;98008.69;;;22.63;43.75
76660;BME280;65579;45.534;6.212;2023-09-12T02:54:18;98007.16;;;19.89;48.84
76660;BME280;65579;45.534;6.212;2023-09-12T02:56:43;98005.16;;;22.37;44.52
76660;BME280;65579;45.534;6.212;2023-09-12T02:59:09;97999.92;;;23.27;42.88
76660;BME280;65579;45.534;6.212;2023-09-12T03:01:35;98005.20;;;23.40;41.54
76660;BME280;65579;45.534;6.212;2023-09-12T03:04:00;98017.18;;;23.22;41.52
76660;BME280;65579;45.534;6.212;2023-09-12T03:06:25;98025.70;;;19.19;49.60
76660;BME280;65579;45.534;6.212;2023-09-12T03:08:50;98020.75;;;19.42;51.13
76660;BME280;65579;45.534;6.212;2023-09-12T03:11:16;98014.09;;;18.77;53.44
76660;BME280;65579;45.534;6.212;2023-09-12T03:13:41;98005.66;;;16.88;56.92
76660;BME280;65579;45.534;6.212;2023-09-12T03:16:10;98010.86;;;17.06;57.63
76660;BME280;65579;45.534;6.212;2023-09-12T03:18:32;98017.44;;;18.90;52.67
76660;BME280;65579;45.534;6.212;2023-09-12T03:20:57;98019.26;;;19.24;51.75
76660;BME280;65579;45.534;6.212;2023-09-12T03:23:23;98007.71;;;20.19;49.34
76660;BME280;65579;45.534;6.212;2023-09-12T03:25:48;97999.66;;;19.24;50.31
76660;BME280;65579;45.534;6.212;2023-09-12T03:28:13;98000.85;;;20.26;48.71
76660;BME280;65579;45.534;6.212;2023-09-12T03:30:39;98002.28;;;20.25;47.29
76660;BME280;65579;45.534;6.212;2023-09-12T03:33:05;98010.27;;;18.78;51.40
76660;BME280;65579;45.534;6.212;2023-09-12T03:35:30;98007.81;;;21.07;46.63
76660;BME280;65579;45.534;6.212;2023-09-12T03:37:55;98000.18;;;22.23;43.82
76660;BME280;65579;45.534;6.212;2023-09-12T03:40:20;97998.12;;;21.88;44.19
76660;BME280;65579;45.534;6.212;2023-09-12T03:42:45;97995.38;;;21.34;45.91
76660;BME280;65579;45.534;6.212;2023-09-12T03:45:11;97989.82;;;22.40;43.09
76660;BME280;65579;45.534;6.212;2023-09-12T03:47:36;97989.25;;;22.86;42.83
76660;BME280;65579;45.534;6.212;2023-09-12T03:50:02;97998.38;;;23.42;41.29
76660;BME280;65579;45.534;6.212;2023-09-12T03:52:27;98002.02;;;22.55;42.69
76660;BME280;65579;45.534;6.212;2023-09-12T03:54:53;98010.93;;;17.09;54.57
76660;BME280;65579;45.534;6.212;2023-09-12T03:57:18;98012.68;;;18.45;52.08
76660;BME280;65579;45.534;6.212;2023-09-12T03:59:43;98008.24;;;19.78;49.43
76660;BME280;65579;45.534;6.212;2023-09-12T04:02:09;98010.91;;;21.58;45.19
76660;BME280;65579;45.534;6.212;2023-09-12T04:04:35;98005.87;;;22.04;44.73
76660;BME280;65579;45.534;6.212;2023-09-12T04:07:00;98003.68;;;22.19;42.42
76660;BME280;65579;45.534;6.212;2023-09-12T04:09:25;97998.28;;;22.72;42.12
76660;BME280;65579;45.534;6.212;2023-09-12T04:11:50;97998.99;;;20.25;47.01
76660;BME280;65579;45.534;6.212;2023-09-12T04:14:16;97996.08;;;18.34;51.60
76660;BME280;65579;45.534;6.212;2023-09-12T04:16:41;97990.44;;;18.79;52.12
76660;BME280;65579;45.534;6.212;2023-09-12T04:19:07;97990.46;;;21.39;46.24
76660;BME280;65579;45.534;6.212;2023-09-12T04:21:32;98010.28;;;16.58;56.86
76660;BME280;65579;45.534;6.212;2023-09-12T04:23:58;98005.61;;;18.56;51.97
76660;BME280;65579;45.534;6.212;2023-09-12T04:26:23;98009.75;;;21.29;46.12
76660;BME280;65579;45.534;6.212;2023-09-12T04:28:49;98009.36;;;21.05;46.10
76660;BME280;65579;45.534;6.212;2023-09-12T04:31:14;98009.39;;;22.42;43.73
76660;BME280;65579;45.534;6.212;2023-09-12T04:33:40;98012.05;;;23.10;42.22
76660;BME280;65579;45.534;6.212;2023-09-12T04:36:05;98017.39;;;22.60;42.87
76660;BME280;65579;45.534;6.212;2023-09-12T04:38:30;98014.97;;;23.11;41.09
76660;BME280;65579;45.534;6.212;2023-09-12T04:40:56;98013.89;;;23.23;40.74
76660;BME280;65579;45.534;6.212;2023-09-12T04:43:21;98010.74;;;23.83;40.95
76660;BME280;65579;45.534;6.212;2023-09-12T04:45:47;98005.98;;;23.62;39.99
76660;BME280;65579;45.534;6.212;2023-09-12T04:48:13;98005.47;;;23.83;39.99
76660;BME280;65579;45.534;6.212;2023-09-12T04:50:40;98004.19;;;23.34;40.85
76660;BME280;65579;45.534;6.212;2023-09-12T04:53:04;98010.69;;;23.43;40.15
76660;BME280;65579;45.534;6.212;2023-09-12T04:55:29;98019.83;;;23.20;41.47
76660;BME280;65579;45.534;6.212;2023-09-12T04:57:54;98022.76;;;23.04;41.03
76660;BME280;65579;45.534;6.212;2023-09-12T05:00:20;98026.88;;;22.67;42.41
76660;BME280;65579;45.534;6.212;2023-09-12T05:02:45;98031.50;;;20.21;46.85
76660;BME280;65579;45.534;6.212;2023-09-12T05:05:11;98038.06;;;16.64;55.57
76660;BME280;65579;45.534;6.212;2023-09-12T05:07:36;98031.51;;;18.23;53.06
76660;BME280;65579;45.534;6.212;2023-09-12T05:10:03;98028.40;;;20.88;47.40
76660;BME280;65579;45.534;6.212;2023-09-12T05:12:28;98024.63;;;21.40;45.89
76660;BME280;65579;45.534;6.212;2023-09-12T05:14:54;98023.24;;;20.84;46.46
76660;BME280;65579;45.534;6.212;2023-09-12T05:17:19;98031.86;;;22.46;43.65
76660;BME280;65579;45.534;6.212;2023-09-12T05:19:49;98036.60;;;22.47;42.24
76660;BME280;65579;45.534;6.212;2023-09-12T05:22:10;98042.21;;;22.59;42.38
76660;BME280;65579;45.534;6.212;2023-09-12T05:24:35;98049.56;;;19.44;48.54
76660;BME280;65579;45.534;6.212;2023-09-12T05:27:00;98049.25;;;21.54;45.03
76660;BME280;65579;45.534;6.212;2023-09-12T05:29:26;98055.36;;;21.49;44.36
76660;BME280;65579;45.534;6.212;2023-09-12T05:31:51;98050.44;;;22.08;43.71
76660;BME280;65579;45.534;6.212;2023-09-12T05:34:16;98045.19;;;22.73;43.11
76660;BME280;65579;45.534;6.212;2023-09-12T05:36:42;98051.62;;;23.08;41.15
76660;BME280;65579;45.534;6.212;2023-09-12T05:39:08;98047.56;;;23.34;40.28
76660;BME280;65579;45.534;6.212;2023-09-12T05:41:33;98049.60;;;22.76;42.08
76660;BME280;65579;45.534;6.212;2023-09-12T05:43:58;98051.39;;;21.11;45.26
76660;BME280;65579;45.534;6.212;2023-09-12T05:46:24;98056.84;;;22.69;42.64
76660;BME280;65579;45.534;6.212;2023-09-12T05:48:49;98062.89;;;22.84;41.44
76660;BME280;65579;45.534;6.212;2023-09-12T05:51:15;98056.18;;;23.46;41.78
76660;BME280;65579;45.534;6.212;2023-09-12T05:53:40;98054.69;;;23.60;41.22
76660;BME280;65579;45.534;6.212;2023-09-12T05:56:05;98060.38;;;23.63;40.45
76660;BME280;65579;45.534;6.212;2023-09-12T05:58:31;98060.35;;;23.90;39.94
76660;BME280;65579;45.534;6.212;2023-09-12T06:00:56;98062.60;;;23.60;39.75
76660;BME280;65579;45.534;6.212;2023-09-12T06:03:22;98071.63;;;22.07;43.56
76660;BME280;65579;45.534;6.212;2023-09-12T06:05:47;98071.72;;;20.09;47.70
76660;BME280;65579;45.534;6.212;2023-09-12T06:08:13;98070.58;;;19.97;49.16
76660;BME280;65579;45.534;6.212;2023-09-12T06:10:39;98066.69;;;19.54;49.43
76660;BME280;65579;45.534;6.212;2023-09-12T06:13:04;98060.53;;;21.13;46.59
76660;BME280;65579;45.534;6.212;2023-09-12T06:15:30;98064.57;;;22.11;44.13
76660;BME280;65579;45.534;6.212;2023-09-12T06:17:55;98062.16;;;22.31;44.08
76660;BME280;65579;45.534;6.212;2023-09-12T06:20:21;98061.84;;;23.65;41.35
76660;BME280;65579;45.534;6.212;2023-09-12T06:22:46;98066.04;;;23.98;40.68
76660;BME280;65579;45.534;6.212;2023-09-12T06:25:12;98062.61;;;24.12;39.67
76660;BME280;65579;45.534;6.212;2023-09-12T06:27:37;98066.71;;;24.25;40.25
76660;BME280;65579;45.534;6.212;2023-09-12T06:30:04;98064.31;;;24.53;39.61
76660;BME280;65579;45.534;6.212;2023-09-12T06:32:28;98059.41;;;24.74;38.36
76660;BME280;65579;45.534;6.212;2023-09-12T06:34:54;98061.23;;;24.17;39.99
76660;BME280;65579;45.534;6.212;2023-09-12T06:37:19;98062.15;;;24.23;39.85
76660;BME280;65579;45.534;6.212;2023-09-12T06:39:45;98063.00;;;24.53;39.51
76660;BME280;65579;45.534;6.212;2023-09-12T06:42:11;98059.25;;;25.08;39.85
76660;BME280;65579;45.534;6.212;2023-09-12T06:44:36;98059.69;;;25.11;39.86
76660;BME280;65579;45.534;6.212;2023-09-12T06:49:27;98062.66;;;19.88;47.49
76660;BME280;65579;45.534;6.212;2023-09-12T06:51:53;98057.19;;;23.61;40.80
76660;BME280;65579;45.534;6.212;2023-09-12T06:54:18;98055.37;;;24.81;38.94
76660;BME280;65579;45.534;6.212;2023-09-12T06:56:43;98059.50;;;24.83;39.95
76660;BME280;65579;45.534;6.212;2023-09-12T06:59:09;98064.17;;;25.04;39.61
76660;BME280;65579;45.534;6.212;2023-09-12T07:01:34;98069.06;;;25.55;38.45
76660;BME280;65579;45.534;6.212;2023-09-12T07:03:59;98075.85;;;25.71;38.22
76660;BME280;65579;45.534;6.212;2023-09-12T07:06:25;98076.39;;;26.26;37.39
76660;BME280;65579;45.534;6.212;2023-09-12T07:08:50;98076.41;;;26.53;37.32
76660;BME280;65579;45.534;6.212;2023-09-12T07:11:16;98081.30;;;26.71;37.28
76660;BME280;65579;45.534;6.212;2023-09-12T07:13:41;98087.98;;;26.06;37.88
76660;BME280;65579;45.534;6.212;2023-09-12T07:16:07;98094.06;;;25.81;38.25
76660;BME280;65579;45.534;6.212;2023-09-12T07:18:32;98101.00;;;22.79;42.45
76660;BME280;65579;45.534;6.212;2023-09-12T07:20:59;98105.37;;;23.34;41.96
76660;BME280;65579;45.534;6.212;2023-09-12T07:23:24;98112.58;;;22.09;43.43
76660;BME280;65579;45.534;6.212;2023-09-12T07:25:49;98113.67;;;20.75;46.63
76660;BME280;65579;45.534;6.212;2023-09-12T07:28:15;98109.88;;;20.34;47.56
76660;BME280;65579;45.534;6.212;2023-09-12T07:30:40;98113.29;;;22.87;43.35
76660;BME280;65579;45.534;6.212;2023-09-12T07:33:06;98109.21;;;24.41;40.52
76660;BME280;65579;45.534;6.212;2023-09-12T07:35:31;98104.22;;;25.29;39.09
76660;BME280;65579;45.534;6.212;2023-09-12T07:37:57;98103.79;;;25.37;38.10
76660;BME280;65579;45.534;6.212;2023-09-12T07:40:22;98103.55;;;25.90;37.38
76660;BME280;65579;45.534;6.212;2023-09-12T07:42:48;98111.79;;;24.99;39.10
76660;BME280;65579;45.534;6.212;2023-09-12T07:45:13;98115.13;;;26.04;37.83
76660;BME280;65579;45.534;6.212;2023-09-12T07:47:39;98117.18;;;26.11;37.96
76660;BME280;65579;45.534;6.212;2023-09-12T07:50:05;98118.16;;;26.39;36.11
76660;BME280;65579;45.534;6.212;2023-09-12T07:52:29;98122.03;;;26.80;35.42
76660;BME280;65579;45.534;6.212;2023-09-12T07:54:59;98125.13;;;26.85;35.07
76660;BME280;65579;45.534;6.212;2023-09-12T07:57:20;98127.29;;;26.87;34.45
76660;BME280;65579;45.534;6.212;2023-09-12T07:59:46;98126.05;;;27.09;34.33
76660;BME280;65579;45.534;6.212;2023-09-12T08:02:12;98127.61;;;27.31;34.29
76660;BME280;65579;45.534;6.212;2023-09-12T08:04:37;98126.79;;;27.27;34.13
76660;BME280;65579;45.534;6.212;2023-09-12T08:07:02;98132.64;;;27.24;34.09
76660;BME280;65579;45.534;6.212;2023-09-12T08:11:53;98121.86;;;26.15;34.07
76660;BME280;65579;45.534;6.212;2023-09-12T08:14:19;98128.98;;;20.88;43.94
76660;BME280;65579;45.534;6.212;2023-09-12T08:16:44;98127.79;;;24.79;38.52
76660;BME280;65579;45.534;6.212;2023-09-12T08:19:10;98126.81;;;24.63;40.60
76660;BME280;65579;45.534;6.212;2023-09-12T08:21:35;98130.67;;;23.16;42.76
76660;BME280;65579;45.534;6.212;2023-09-12T08:24:00;98128.40;;;24.31;40.09
76660;BME280;65579;45.534;6.212;2023-09-12T08:26:25;98128.13;;;24.59;41.02
76660;BME280;65579;45.534;6.212;2023-09-12T08:28:51;98126.77;;;22.59;42.99
76660;BME280;65579;45.534;6.212;2023-09-12T08:31:16;98117.99;;;23.19;41.48
76660;BME280;65579;45.534;6.212;2023-09-12T08:33:42;98122.69;;;22.41;42.83
76660;BME280;65579;45.534;6.212;2023-09-12T08:36:07;98122.66;;;22.55;42.46
76660;BME280;65579;45.534;6.212;2023-09-12T08:38:33;98120.00;;;23.26;41.89
76660;BME280;65579;45.534;6.212;2023-09-12T08:40:59;98122.22;;;25.19;38.71
76660;BME280;65579;45.534;6.212;2023-09-12T08:43:24;98122.55;;;25.55;38.23
76660;BME280;65579;45.534;6.212;2023-09-12T08:45:50;98127.92;;;25.41;38.40
76660;BME280;65579;45.534;6.212;2023-09-12T08:48:15;98127.01;;;22.82;41.57
76660;BME280;65579;45.534;6.212;2023-09-12T08:50:41;98121.68;;;25.07;40.46
76660;BME280;65579;45.534;6.212;2023-09-12T08:53:06;98119.86;;;24.88;39.36
76660;BME280;65579;45.534;6.212;2023-09-12T08:55:31;98118.71;;;26.22;37.05
76660;BME280;65579;45.534;6.212;2023-09-12T08:57:57;98120.07;;;24.97;38.12
76660;BME280;65579;45.534;6.212;2023-09-12T09:00:23;98121.16;;;24.28;38.59
76660;BME280;65579;45.534;6.212;2023-09-12T09:02:48;98116.17;;;24.71;38.22
76660;BME280;65579;45.534;6.212;2023-09-12T09:05:13;98111.63;;;26.01;35.79
76660;BME280;65579;45.534;6.212;2023-09-12T09:07:39;98104.97;;;26.20;34.09
76660;BME280;65579;45.534;6.212;2023-09-12T09:10:06;98103.27;;;25.96;35.91
76660;BME280;65579;45.534;6.212;2023-09-12T09:12:29;98100.30;;;25.81;35.35
76660;BME280;65579;45.534;6.212;2023-09-12T09:14:54;98097.82;;;26.37;34.96
76660;BME280;65579;45.534;6.212;2023-09-12T09:17:20;98096.29;;;25.09;37.18
76660;BME280;65579;45.534;6.212;2023-09-12T09:19:45;98094.73;;;27.10;34.06
76660;BME280;65579;45.534;6.212;2023-09-12T09:22:10;98096.29;;;26.79;33.85
76660;BME280;65579;45.534;6.212;2023-09-12T09:24:36;98096.70;;;27.57;32.76
76660;BME280;65579;45.534;6.212;2023-09-12T09:27:01;98100.65;;;27.85;32.46
76660;BME280;65579;45.534;6.212;2023-09-12T09:29:27;98097.38;;;24.57;36.82
76660;BME280;65579;45.534;6.212;2023-09-12T09:31:52;98097.07;;;25.39;37.57
76660;BME280;65579;45.534;6.212;2023-09-12T09:34:18;98096.04;;;26.79;35.11
76660;BME280;65579;45.534;6.212;2023-09-12T09:36:43;98087.37;;;26.22;34.68
76660;BME280;65579;45.534;6.212;2023-09-12T09:39:08;98084.96;;;25.43;35.69
76660;BME280;65579;45.534;6.212;2023-09-12T09:41:33;98084.84;;;24.58;38.10
76660;BME280;65579;45.534;6.212;2023-09-12T09:43:59;98086.42;;;26.00;35.98
76660;BME280;65579;45.534;6.212;2023-09-12T09:46:24;98085.03;;;26.18;34.23
76660;BME280;65579;45.534;6.212;2023-09-12T09:48:51;98081.81;;;25.39;37.92
76660;BME280;65579;45.534;6.212;2023-09-12T09:51:16;98079.40;;;26.82;35.52
76660;BME280;65579;45.534;6.212;2023-09-12T09:53:41;98071.01;;;24.93;36.50
76660;BME280;65579;45.534;6.212;2023-09-12T09:56:09;98069.46;;;27.09;34.88
76660;BME280;65579;45.534;6.212;2023-09-12T09:58:32;98067.65;;;27.26;34.21
76660;BME280;65579;45.534;6.212;2023-09-12T10:00:58;98065.76;;;28.11;32.69
76660;BME280;65579;45.534;6.212;2023-09-12T10:03:23;98068.03;;;28.58;31.90
76660;BME280;65579;45.534;6.212;2023-09-12T10:05:51;98066.10;;;29.20;30.99
76660;BME280;65579;45.534;6.212;2023-09-12T10:08:14;98071.63;;;26.32;33.68
76660;BME280;65579;45.534;6.212;2023-09-12T10:10:40;98068.10;;;27.85;33.29
76660;BME280;65579;45.534;6.212;2023-09-12T10:13:05;98069.63;;;28.50;32.44
76660;BME280;65579;45.534;6.212;2023-09-12T10:15:30;98071.84;;;28.32;33.32
76660;BME280;65579;45.534;6.212;2023-09-12T10:17:59;98075.26;;;29.93;30.25
76660;BME280;65579;45.534;6.212;2023-09-12T10:20:25;98080.38;;;28.91;32.14
76660;BME280;65579;45.534;6.212;2023-09-12T10:22:51;98081.32;;;27.53;33.87
76660;BME280;65579;45.534;6.212;2023-09-12T10:25:12;98080.50;;;26.90;35.33
76660;BME280;65579;45.534;6.212;2023-09-12T10:27:37;98075.87;;;29.50;32.33
76660;BME280;65579;45.534;6.212;2023-09-12T10:30:03;98079.54;;;27.22;35.16
76660;BME280;65579;45.534;6.212;2023-09-12T10:32:28;98079.64;;;27.37;34.74
76660;BME280;65579;45.534;6.212;2023-09-12T10:34:54;98079.97;;;29.19;32.77
76660;BME280;65579;45.534;6.212;2023-09-12T10:37:19;98087.47;;;26.09;36.52
76660;BME280;65579;45.534;6.212;2023-09-12T10:39:50;98080.72;;;28.89;32.82
76660;BME280;65579;45.534;6.212;2023-09-12T10:42:10;98078.72;;;29.84;31.32
76660;BME280;65579;45.534;6.212;2023-09-12T10:44:35;98074.88;;;30.69;30.23
76660;BME280;65579;45.534;6.212;2023-09-12T10:47:01;98070.14;;;30.55;29.82
76660;BME280;65579;45.534;6.212;2023-09-12T10:49:27;98075.48;;;31.20;28.75
76660;BME280;65579;45.534;6.212;2023-09-12T10:51:52;98073.98;;;30.92;29.97
76660;BME280;65579;45.534;6.212;2023-09-12T10:56:42;98077.70;;;26.63;35.91
76660;BME280;65579;45.534;6.212;2023-09-12T10:59:14;98075.85;;;26.56;35.93
76660;BME280;65579;45.534;6.212;2023-09-12T11:01:34;98071.60;;;26.14;37.90
76660;BME280;65579;45.534;6.212;2023-09-12T11:03:59;98065.56;;;27.11;35.41
76660;BME280;65579;45.534;6.212;2023-09-12T11:06:29;98059.14;;;28.30;33.71
76660;BME280;65579;45.534;6.212;2023-09-12T11:11:18;98055.73;;;27.29;35.65
76660;BME280;65579;45.534;6.212;2023-09-12T11:13:40;98060.79;;;26.35;35.54
76660;BME280;65579;45.534;6.212;2023-09-12T11:16:12;98058.69;;;24.62;38.60
76660;BME280;65579;45.534;6.212;2023-09-12T11:18:31;98053.70;;;24.65;38.88
76660;BME280;65579;45.534;6.212;2023-09-12T11:21:00;98047.47;;;24.76;38.82
76660;BME280;65579;45.534;6.212;2023-09-12T11:23:21;98048.87;;;24.19;39.40
76660;BME280;65579;45.534;6.212;2023-09-12T11:25:47;98042.61;;;27.87;33.81
76660;BME280;65579;45.534;6.212;2023-09-12T11:28:13;98045.12;;;26.44;34.51
76660;BME280;65579;45.534;6.212;2023-09-12T11:33:05;98041.82;;;28.40;32.64
76660;BME280;65579;45.534;6.212;2023-09-12T11:35:29;98038.79;;;28.48;31.92
76660;BME280;65579;45.534;6.212;2023-09-12T11:37:55;98038.40;;;30.21;30.06
76660;BME280;65579;45.534;6.212;2023-09-12T11:40:24;98035.50;;;29.32;33.77
76660;BME280;65579;45.534;6.212;2023-09-12T11:42:45;98033.73;;;28.55;33.76
76660;BME280;65579;45.534;6.212;2023-09-12T11:45:11;98027.19;;;28.79;32.75
76660;BME280;65579;45.534;6.212;2023-09-12T11:47:40;98026.43;;;27.35;34.54
76660;BME280;65579;45.534;6.212;2023-09-12T11:50:01;98028.94;;;30.25;31.15
76660;BME280;65579;45.534;6.212;2023-09-12T11:52:26;98027.67;;;30.19;31.42
76660;BME280;65579;45.534;6.212;2023-09-12T11:54:52;98027.03;;;29.60;32.39
76660;BME280;65579;45.534;6.212;2023-09-12T11:57:17;98028.53;;;27.25;35.39
76660;BME280;65579;45.534;6.212;2023-09-12T11:59:44;98025.11;;;30.87;30.44
76660;BME280;65579;45.534;6.212;2023-09-12T12:02:09;98022.29;;;31.21;28.61
76660;BME280;65579;45.534;6.212;2023-09-12T12:04:33;98022.45;;;31.50;27.61
76660;BME280;65579;45.534;6.212;2023-09-12T12:06:59;98014.69;;;32.14;27.07
76660;BME280;65579;45.534;6.212;2023-09-12T12:09:24;98018.76;;;27.99;33.47
76660;BME280;65579;45.534;6.212;2023-09-12T12:11:49;98022.76;;;25.57;36.84
76660;BME280;65579;45.534;6.212;2023-09-12T12:14:16;98015.89;;;24.09;40.15
76660;BME280;65579;45.534;6.212;2023-09-12T12:16:41;98014.48;;;23.43;41.33
76660;BME280;65579;45.534;6.212;2023-09-12T12:19:06;98011.55;;;26.25;37.34
76660;BME280;65579;45.534;6.212;2023-09-12T12:21:32;98012.54;;;25.44;39.12
76660;BME280;65579;45.534;6.212;2023-09-12T12:23:59;98004.21;;;25.34;39.10
76660;BME280;65579;45.534;6.212;2023-09-12T12:26:24;97999.92;;;25.39;36.58
76660;BME280;65579;45.534;6.212;2023-09-12T12:28:48;97995.50;;;27.16;34.55
76660;BME280;65579;45.534;6.212;2023-09-12T12:31:13;98000.70;;;26.95;33.83
76660;BME280;65579;45.534;6.212;2023-09-12T12:33:39;97998.04;;;26.29;33.42
76660;BME280;65579;45.534;6.212;2023-09-12T12:36:05;97994.09;;;26.15;35.91
76660;BME280;65579;45.534;6.212;2023-09-12T12:38:33;97990.14;;;26.18;37.78
76660;BME280;65579;45.534;6.212;2023-09-12T12:40:56;97992.46;;;25.65;35.92
76660;BME280;65579;45.534;6.212;2023-09-12T12:43:20;97982.71;;;28.76;32.82
76660;BME280;65579;45.534;6.212;2023-09-12T12:45:53;97980.10;;;28.15;32.75
76660;BME280;65579;45.534;6.212;2023-09-12T12:48:11;97987.84;;;25.03;36.53
76660;BME280;65579;45.534;6.212;2023-09-12T12:50:36;97982.33;;;26.27;36.21
76660;BME280;65579;45.534;6.212;2023-09-12T12:53:02;97972.25;;;29.71;31.82
76660;BME280;65579;45.534;6.212;2023-09-12T12:55:28;97969.52;;;26.85;33.95
76660;BME280;65579;45.534;6.212;2023-09-12T12:57:54;97972.00;;;28.17;32.73
76660;BME280;65579;45.534;6.212;2023-09-12T13:00:19;97971.11;;;26.99;33.48
76660;BME280;65579;45.534;6.212;2023-09-12T13:02:45;97968.58;;;27.65;32.62
76660;BME280;65579;45.534;6.212;2023-09-12T13:05:20;97968.87;;;26.78;34.35
76660;BME280;65579;45.534;6.212;2023-09-12T13:07:35;97970.42;;;24.47;36.20
76660;BME280;65579;45.534;6.212;2023-09-12T13:10:01;97969.96;;;24.43;37.60